Portada
METAR-TAF:

METAR-TAF

Aeropuertos :

Aeropuerto Internacional de El Arish

El Arish, Egipto

latitud: 31-05N, longitud: 033-49E, altitud: 31 m

METAR: falta

Hora: 14:26 (12:26 UTC)

Pronóstico

El informe se hizo hace 1 hora y 26 minutos, a las 11:00 UTC
Pronóstico válido del 23 a las 12 UTC al 24 a las 18 UTC
Viento 14 kt del oeste-noroeste
Visibilidad 10 km o más
Nubes dispersas a una altura de 2500 ft
Temporalmente
del 24 a las 03 UTC al 24 a las 12 UTC
Visibilidad: 4000 m
Cielo nuboso a una altura de 2000 ft
lluvia

TAF: HEAR 231100Z 2312/2418 30014KT 9999 SCT025 TEMPO 2403/2412 4000 RA BKN020

Observaciones y pronósticos meteorológicos de más de 4000 aeropuertos (mensajes METAR y TAF).

Los puntos amarillos y rojos representan las estaciones disponibles.

Ponga el ratón en el punto deseado para ver el nombre de la estación.

Haga clic para ver las observaciones y los pronósticos meteorológicos.

Para cambiar el mapa : haga clic en los botones verdes con una cruz de color negro para hacer un zoom, en el botón verde con un guión para alejar o en las flechas verdes para mapas adyacentes.


METAR-TAF: